createdAt,value
2022-11-25T00:00:02.410Z,4.32
2022-11-25T00:02:47.280Z,4.43
2022-11-25T00:05:18.689Z,3.75
2022-11-25T00:07:49.498Z,4.28
2022-11-25T00:10:23.110Z,5.05
2022-11-25T00:12:53.913Z,5.10
2022-11-25T00:15:25.189Z,3.65
2022-11-25T00:17:56.680Z,3.58
2022-11-25T00:20:27.944Z,3.30
2022-11-25T00:22:58.734Z,4.30
2022-11-25T00:25:32.091Z,3.35
2022-11-25T00:28:02.872Z,3.72
2022-11-25T00:30:33.791Z,3.30
2022-11-25T00:33:04.737Z,3.20
2022-11-25T00:35:38.055Z,3.85
2022-11-25T00:38:08.801Z,3.53
2022-11-25T00:40:42.238Z,3.15
2022-11-25T00:43:25.988Z,3.38
2022-11-25T00:45:56.812Z,3.53
2022-11-25T00:48:28.008Z,2.97
2022-11-25T00:50:58.775Z,2.40
2022-11-25T00:53:29.548Z,3.42
2022-11-25T00:56:17.303Z,2.63
2022-11-25T00:58:48.414Z,3.40
2022-11-25T01:01:19.688Z,3.28
2022-11-25T01:03:52.802Z,3.20
2022-11-25T01:06:24.544Z,3.67
2022-11-25T01:08:56.033Z,4.70
2022-11-25T01:11:29.498Z,3.60
2022-11-25T01:14:01.705Z,3.60
2022-11-25T01:16:33.913Z,3.53
2022-11-25T01:19:06.000Z,3.75
2022-11-25T01:21:37.768Z,3.33
2022-11-25T01:24:10.613Z,2.90
2022-11-25T01:26:45.100Z,3.60
2022-11-25T01:29:18.723Z,3.60
2022-11-25T01:31:50.246Z,3.97
2022-11-25T01:34:26.375Z,4.22
2022-11-25T01:36:57.469Z,3.13
2022-11-25T01:39:32.930Z,4.07
2022-11-25T01:42:07.564Z,3.35
2022-11-25T01:44:42.667Z,3.38
2022-11-25T01:47:19.395Z,3.75
2022-11-25T01:49:54.441Z,2.95
2022-11-25T01:52:28.010Z,3.03
2022-11-25T01:55:04.130Z,2.72
2022-11-25T01:57:42.764Z,3.45
2022-11-25T02:00:14.929Z,4.28
2022-11-25T02:02:50.138Z,2.60
2022-11-25T02:05:29.600Z,4.13
2022-11-25T02:08:04.250Z,2.85
2022-11-25T02:10:36.985Z,2.47
2022-11-25T02:13:10.441Z,2.75
2022-11-25T02:15:41.239Z,3.22
2022-11-25T02:18:12.434Z,2.63
2022-11-25T02:20:44.038Z,2.53
2022-11-25T02:23:25.884Z,2.40
2022-11-25T02:26:01.534Z,2.83
2022-11-25T02:28:34.498Z,3.00
2022-11-25T02:31:07.299Z,3.13
2022-11-25T02:33:39.856Z,2.72
2022-11-25T02:36:16.058Z,2.78
2022-11-25T02:38:50.274Z,2.55
2022-11-25T02:41:28.808Z,2.67
2022-11-25T02:44:04.682Z,2.42
2022-11-25T02:46:37.175Z,2.80
2022-11-25T02:49:09.873Z,2.45
2022-11-25T02:51:44.138Z,3.00
2022-11-25T02:54:15.942Z,2.92
2022-11-25T02:56:49.827Z,2.40
2022-11-25T02:59:20.668Z,2.80
2022-11-25T03:01:52.524Z,2.75
2022-11-25T03:04:23.806Z,2.20
2022-11-25T03:06:54.744Z,2.85
2022-11-25T03:09:25.465Z,2.10
2022-11-25T03:12:12.746Z,2.40
2022-11-25T03:14:43.503Z,2.00
2022-11-25T03:17:16.207Z,2.05
2022-11-25T03:19:47.582Z,2.25
2022-11-25T03:22:18.713Z,2.90
2022-11-25T03:24:49.689Z,2.25
2022-11-25T03:27:23.465Z,2.67
2022-11-25T03:29:54.734Z,2.38
2022-11-25T03:32:25.839Z,2.70
2022-11-25T03:34:56.616Z,2.13
2022-11-25T03:37:27.557Z,2.50
2022-11-25T03:39:59.169Z,2.03
2022-11-25T03:42:33.456Z,1.88
2022-11-25T03:45:05.223Z,1.92
2022-11-25T03:47:36.377Z,2.30
2022-11-25T03:50:09.684Z,3.15
2022-11-25T03:52:41.151Z,1.90
2022-11-25T03:55:14.053Z,2.15
2022-11-25T03:57:51.141Z,2.30
2022-11-25T04:00:23.404Z,2.03
2022-11-25T04:02:58.109Z,2.80
2022-11-25T04:05:28.935Z,3.20
2022-11-25T04:08:03.445Z,2.35
2022-11-25T04:10:35.752Z,2.50
2022-11-25T04:13:09.464Z,2.33
2022-11-25T04:15:48.890Z,2.28
2022-11-25T04:18:23.208Z,1.75
2022-11-25T04:20:58.543Z,1.73
2022-11-25T04:23:29.522Z,1.90
2022-11-25T04:26:05.006Z,2.92
2022-11-25T04:28:43.439Z,1.73
2022-11-25T04:31:14.722Z,1.98
2022-11-25T04:33:52.411Z,1.60
2022-11-25T04:36:25.012Z,1.80
2022-11-25T04:38:56.302Z,1.95
2022-11-25T04:41:27.905Z,1.67
2022-11-25T04:44:02.863Z,2.40
2022-11-25T04:46:39.320Z,2.33
2022-11-25T04:49:10.313Z,1.63
2022-11-25T04:51:42.476Z,1.98
2022-11-25T04:54:17.319Z,2.03
2022-11-25T04:56:49.211Z,2.33
2022-11-25T04:59:36.759Z,2.10
2022-11-25T05:02:07.650Z,2.75
2022-11-25T05:07:16.502Z,2.70
2022-11-25T05:09:49.638Z,2.05
2022-11-25T05:15:01.124Z,2.58
2022-11-25T05:17:35.176Z,2.65
2022-11-25T05:20:06.818Z,2.20
2022-11-25T05:22:39.378Z,1.88
2022-11-25T05:25:13.283Z,1.98
2022-11-25T05:27:54.840Z,2.08
2022-11-25T05:30:29.073Z,1.67
2022-11-25T05:33:00.241Z,2.00
2022-11-25T05:35:31.075Z,1.63
2022-11-25T05:38:04.629Z,1.92
2022-11-25T05:40:37.561Z,2.20
2022-11-25T05:43:14.479Z,1.70
2022-11-25T05:45:48.536Z,2.75
2022-11-25T05:48:19.336Z,1.90
2022-11-25T05:50:50.732Z,1.70
2022-11-25T05:53:24.687Z,1.60
2022-11-25T05:55:59.653Z,2.72
2022-11-25T05:58:49.339Z,1.95
2022-11-25T06:01:23.588Z,2.15
2022-11-25T06:03:54.364Z,2.33
2022-11-25T06:06:25.733Z,2.65
2022-11-25T06:08:56.517Z,4.40
2022-11-25T06:11:28.435Z,2.53
2022-11-25T06:14:00.965Z,2.90
2022-11-25T06:16:35.487Z,2.90
2022-11-25T06:19:27.258Z,2.92
2022-11-25T06:21:58.356Z,3.00
2022-11-25T06:24:30.999Z,2.70
2022-11-25T06:27:06.842Z,2.42
2022-11-25T06:29:39.557Z,2.45
2022-11-25T06:32:13.462Z,2.58
2022-11-25T06:35:07.184Z,2.08
2022-11-25T06:37:44.593Z,2.22
2022-11-25T06:40:15.903Z,1.58
2022-11-25T06:42:46.919Z,2.10
2022-11-25T06:45:18.414Z,2.00
2022-11-25T06:47:51.803Z,2.67
2022-11-25T06:50:22.609Z,2.63
2022-11-25T06:52:53.431Z,2.22
2022-11-25T06:55:24.196Z,2.22
2022-11-25T06:58:08.454Z,2.47
2022-11-25T07:00:46.949Z,2.63
2022-11-25T07:03:20.899Z,2.88
2022-11-25T07:05:52.858Z,2.10
2022-11-25T07:08:26.416Z,2.00
2022-11-25T07:11:06.594Z,2.15
2022-11-25T07:13:38.312Z,2.10
2022-11-25T07:16:11.448Z,1.92
2022-11-25T07:18:45.363Z,2.88
2022-11-25T07:21:18.192Z,1.98
2022-11-25T07:23:50.149Z,1.48
2022-11-25T07:26:23.227Z,2.00
2022-11-25T07:28:55.105Z,2.35
2022-11-25T07:31:31.198Z,2.05
2022-11-25T07:34:08.193Z,1.63
2022-11-25T07:36:39.786Z,2.38
2022-11-25T07:39:15.118Z,2.28
2022-11-25T07:41:46.076Z,2.28
2022-11-25T07:44:18.755Z,1.70
2022-11-25T07:46:55.590Z,2.20
2022-11-25T07:49:29.677Z,3.42
2022-11-25T07:52:04.669Z,3.40
2022-11-25T07:54:35.984Z,2.90
2022-11-25T07:57:07.273Z,2.60
2022-11-25T07:59:41.557Z,3.25
2022-11-25T08:02:14.046Z,3.22
2022-11-25T08:04:48.110Z,3.40
2022-11-25T08:07:19.380Z,3.20
2022-11-25T08:09:51.752Z,2.53
2022-11-25T08:12:23.490Z,2.42
2022-11-25T08:14:54.598Z,3.33
2022-11-25T08:17:26.137Z,3.15
2022-11-25T08:20:00.025Z,3.88
2022-11-25T08:22:32.263Z,3.97
2022-11-25T08:25:03.524Z,4.03
2022-11-25T08:27:34.687Z,4.82
2022-11-25T08:30:06.030Z,4.88
2022-11-25T08:32:40.983Z,5.43
2022-11-25T08:35:15.490Z,4.57
2022-11-25T08:37:46.538Z,6.75
2022-11-25T08:40:17.750Z,8.35
2022-11-25T08:42:48.777Z,11.23
2022-11-25T08:45:19.720Z,14.55
2022-11-25T08:47:50.968Z,11.77
2022-11-25T08:50:25.335Z,15.93
2022-11-25T08:52:57.881Z,11.45
2022-11-25T08:55:29.369Z,10.75
2022-11-25T08:58:00.314Z,12.70
2022-11-25T09:00:31.163Z,10.32
2022-11-25T09:03:04.357Z,9.20
2022-11-25T09:05:42.442Z,8.13
2022-11-25T09:08:14.489Z,7.55
2022-11-25T09:10:45.584Z,6.25
2022-11-25T09:13:16.536Z,6.03
2022-11-25T09:15:47.936Z,6.65
2022-11-25T09:18:20.513Z,6.28
2022-11-25T09:20:54.701Z,5.03
2022-11-25T09:23:26.533Z,5.55
2022-11-25T09:25:58.920Z,4.95
2022-11-25T09:28:30.437Z,5.70
2022-11-25T09:31:02.081Z,5.00
2022-11-25T09:33:33.227Z,4.53
2022-11-25T09:36:07.762Z,5.43
2022-11-25T09:38:42.974Z,5.60
2022-11-25T09:41:40.446Z,5.15
2022-11-25T09:44:32.928Z,5.57
2022-11-25T09:47:10.933Z,3.58
2022-11-25T09:49:53.788Z,3.75
2022-11-25T09:52:39.203Z,3.70
2022-11-25T09:55:14.585Z,4.25
2022-11-25T09:58:06.276Z,4.05
2022-11-25T10:00:43.175Z,3.38
2022-11-25T10:05:55.681Z,3.70
2022-11-25T10:08:34.344Z,4.75
2022-11-25T10:11:11.421Z,3.90
2022-11-25T10:13:54.160Z,3.25
2022-11-25T10:16:39.057Z,3.70
2022-11-25T10:19:18.814Z,4.43
2022-11-25T10:21:50.154Z,3.85
2022-11-25T10:24:24.516Z,4.30
2022-11-25T10:27:01.297Z,3.67
2022-11-25T10:29:34.697Z,3.53
2022-11-25T10:32:25.980Z,4.38
2022-11-25T10:35:01.280Z,5.53
2022-11-25T10:37:36.963Z,3.58
2022-11-25T10:40:17.531Z,5.03
2022-11-25T10:42:48.312Z,5.10
2022-11-25T10:45:19.547Z,4.10
2022-11-25T10:48:06.576Z,2.55
2022-11-25T10:50:48.514Z,3.80
2022-11-25T10:53:23.684Z,4.07
2022-11-25T10:56:05.536Z,3.83
2022-11-25T10:58:38.393Z,3.55
2022-11-25T11:01:17.151Z,4.70
2022-11-25T11:03:49.987Z,3.88
2022-11-25T11:06:36.086Z,3.45
2022-11-25T11:09:07.865Z,4.13
2022-11-25T11:11:51.782Z,3.95
2022-11-25T11:14:30.150Z,4.65
2022-11-25T11:17:02.939Z,3.63
2022-11-25T11:19:34.991Z,4.22
2022-11-25T11:22:20.472Z,3.47
2022-11-25T11:24:51.427Z,3.67
2022-11-25T11:27:28.663Z,2.72
2022-11-25T11:30:11.970Z,3.25
2022-11-25T11:32:48.145Z,4.30
2022-11-25T11:35:26.627Z,3.17
2022-11-25T11:38:02.286Z,2.90
2022-11-25T11:40:41.278Z,2.95
2022-11-25T11:43:40.148Z,3.13
2022-11-25T11:46:25.496Z,3.25
2022-11-25T11:49:06.254Z,3.50
2022-11-25T11:51:48.945Z,2.50
2022-11-25T11:54:25.685Z,3.10
2022-11-25T11:57:02.933Z,3.38
2022-11-25T11:59:53.675Z,3.58
2022-11-25T12:02:34.627Z,3.75
2022-11-25T12:05:17.761Z,2.45
2022-11-25T12:07:57.335Z,3.50
2022-11-25T12:10:33.105Z,3.13
2022-11-25T12:13:16.733Z,3.63
2022-11-25T12:15:56.017Z,3.63
2022-11-25T12:18:38.240Z,5.47
2022-11-25T12:21:14.492Z,3.92
2022-11-25T12:23:55.150Z,3.80
2022-11-25T12:26:32.452Z,3.40
2022-11-25T12:29:11.119Z,3.08
2022-11-25T12:31:52.052Z,3.40
2022-11-25T12:34:32.170Z,3.08
2022-11-25T12:37:14.785Z,2.78
2022-11-25T12:39:51.624Z,3.70
2022-11-25T12:42:27.398Z,1.98
2022-11-25T12:45:06.439Z,2.78
2022-11-25T12:47:40.369Z,2.50
2022-11-25T12:50:19.383Z,2.10
2022-11-25T12:52:59.965Z,2.22
2022-11-25T12:55:31.980Z,2.42
2022-11-25T12:58:36.118Z,2.22
2022-11-25T13:01:39.859Z,2.63
2022-11-25T13:04:39.159Z,2.50
2022-11-25T13:07:37.128Z,2.00
2022-11-25T13:10:38.763Z,2.38
2022-11-25T13:13:34.208Z,2.25
2022-11-25T13:16:10.469Z,2.47
2022-11-25T13:18:44.456Z,2.28
2022-11-25T13:21:19.047Z,2.38
2022-11-25T13:23:56.642Z,2.20
2022-11-25T13:26:50.251Z,2.63
2022-11-25T13:30:05.498Z,2.22
2022-11-25T13:32:39.428Z,1.85
2022-11-25T13:35:43.145Z,2.95
2022-11-25T13:38:50.119Z,2.85
2022-11-25T13:41:45.482Z,2.05
2022-11-25T13:44:29.980Z,2.17
2022-11-25T13:47:03.152Z,2.47
2022-11-25T13:49:44.929Z,3.15
2022-11-25T13:52:48.525Z,4.75
2022-11-25T13:55:33.486Z,4.00
2022-11-25T13:58:26.183Z,3.40
2022-11-25T14:01:29.424Z,3.10
2022-11-25T14:04:03.261Z,2.47
2022-11-25T14:06:44.360Z,2.45
2022-11-25T14:09:31.798Z,2.20
2022-11-25T14:14:56.235Z,2.25
2022-11-25T14:17:51.954Z,2.17
2022-11-25T14:20:36.229Z,3.70
2022-11-25T14:23:35.768Z,1.70
2022-11-25T14:26:41.778Z,1.80
2022-11-25T14:29:06.319Z,2.60
2022-11-25T14:31:46.235Z,2.40
2022-11-25T14:34:23.076Z,2.63
2022-11-25T14:36:57.995Z,1.92
2022-11-25T14:39:34.747Z,2.50
2022-11-25T14:44:45.446Z,2.20
2022-11-25T14:47:19.439Z,1.60
2022-11-25T14:50:05.727Z,1.90
2022-11-25T14:52:47.935Z,2.13
2022-11-25T14:55:29.808Z,2.30
2022-11-25T14:58:01.050Z,3.55
2022-11-25T15:00:32.441Z,8.38
2022-11-25T15:03:08.193Z,4.88
2022-11-25T15:05:41.869Z,4.20
2022-11-25T15:08:18.154Z,2.90
2022-11-25T15:10:55.368Z,2.13
2022-11-25T15:13:35.285Z,2.28
2022-11-25T15:16:11.808Z,1.83
2022-11-25T15:18:53.935Z,1.98
2022-11-25T15:21:30.721Z,1.90
2022-11-25T15:24:02.063Z,2.30
2022-11-25T15:26:34.931Z,3.13
2022-11-25T15:29:13.464Z,3.38
2022-11-25T15:31:45.012Z,3.50
2022-11-25T15:34:20.417Z,3.20
2022-11-25T15:36:54.439Z,3.92
2022-11-25T15:39:31.047Z,1.95
2022-11-25T15:42:11.226Z,3.20
2022-11-25T15:44:48.015Z,1.98
2022-11-25T15:47:24.813Z,1.63
2022-11-25T15:50:04.141Z,2.05
2022-11-25T15:52:37.687Z,2.33
2022-11-25T15:55:11.611Z,3.05
2022-11-25T15:57:42.930Z,2.63
2022-11-25T16:00:19.580Z,2.63
2022-11-25T16:02:56.020Z,2.88
2022-11-25T16:05:35.033Z,2.55
2022-11-25T16:08:27.320Z,3.40
2022-11-25T16:11:00.698Z,3.42
2022-11-25T16:13:34.221Z,4.35
2022-11-25T16:16:15.151Z,3.63
2022-11-25T16:18:55.501Z,3.05
2022-11-25T16:21:31.560Z,4.43
2022-11-25T16:24:25.450Z,5.20
2022-11-25T16:27:00.996Z,6.53
2022-11-25T16:29:35.855Z,4.65
2022-11-25T16:32:18.157Z,5.05
2022-11-25T16:34:50.262Z,6.68
2022-11-25T16:37:24.008Z,5.20
2022-11-25T16:39:54.881Z,4.80
2022-11-25T16:42:26.395Z,3.50
2022-11-25T16:44:57.358Z,4.22
2022-11-25T16:47:29.839Z,4.57
2022-11-25T16:50:01.613Z,4.18
2022-11-25T16:52:35.910Z,4.43
2022-11-25T16:55:07.213Z,4.63
2022-11-25T16:57:38.666Z,4.82
2022-11-25T17:00:17.381Z,4.78
2022-11-25T17:02:49.054Z,4.85
2022-11-25T17:05:22.324Z,5.95
2022-11-25T17:07:56.963Z,6.30
2022-11-25T17:10:29.618Z,6.93
2022-11-25T17:13:00.953Z,5.80
2022-11-25T17:15:36.556Z,6.38
2022-11-25T17:18:10.701Z,5.65
2022-11-25T17:20:41.828Z,6.43
2022-11-25T17:23:19.742Z,5.95
2022-11-25T17:25:54.799Z,5.00
2022-11-25T17:28:26.026Z,7.03
2022-11-25T17:30:57.968Z,5.50
2022-11-25T17:33:29.006Z,5.35
2022-11-25T17:36:00.086Z,5.40
2022-11-25T17:38:39.596Z,6.18
2022-11-25T17:41:15.145Z,7.03
2022-11-25T17:43:47.418Z,7.72
2022-11-25T17:46:20.409Z,7.93
2022-11-25T17:48:51.945Z,6.97
2022-11-25T17:51:24.105Z,6.90
2022-11-25T17:53:57.881Z,6.57
2022-11-25T17:56:32.606Z,8.15
2022-11-25T17:59:06.372Z,9.68
2022-11-25T18:01:37.851Z,7.57
2022-11-25T18:04:19.569Z,9.85
2022-11-25T18:06:50.730Z,10.88
2022-11-25T18:09:24.745Z,11.23
2022-11-25T18:11:58.943Z,11.50
2022-11-25T18:14:33.919Z,13.02
2022-11-25T18:17:07.909Z,17.52
2022-11-25T18:19:39.253Z,15.68
2022-11-25T18:22:16.490Z,14.57
2022-11-25T18:24:50.730Z,14.65
2022-11-25T18:27:27.519Z,23.10
2022-11-25T18:30:02.709Z,16.30
2022-11-25T18:32:35.005Z,19.25
2022-11-25T18:35:08.922Z,24.48
2022-11-25T18:37:39.708Z,23.08
2022-11-25T18:40:14.940Z,25.20
2022-11-25T18:42:48.091Z,24.15
2022-11-25T18:45:22.422Z,22.98
2022-11-25T18:47:53.841Z,24.45
2022-11-25T18:50:26.539Z,21.33
2022-11-25T18:52:58.215Z,20.27
2022-11-25T18:55:32.352Z,20.20
2022-11-25T18:58:04.402Z,19.83
2022-11-25T19:00:35.266Z,20.38
2022-11-25T19:03:06.862Z,20.30
2022-11-25T19:05:38.054Z,20.55
2022-11-25T19:08:10.317Z,21.25
2022-11-25T19:10:46.591Z,20.40
2022-11-25T19:13:20.375Z,26.48
2022-11-25T19:15:52.063Z,25.65
2022-11-25T19:18:27.589Z,33.05
2022-11-25T19:20:59.254Z,29.13
2022-11-25T19:23:30.787Z,16.85
2022-11-25T19:26:10.037Z,13.10
2022-11-25T19:28:41.079Z,16.48
2022-11-25T19:31:14.165Z,17.08
2022-11-25T19:33:46.881Z,19.25
2022-11-25T19:36:26.160Z,35.75
2022-11-25T19:38:57.855Z,58.42
2022-11-25T19:41:31.908Z,58.53
2022-11-25T19:44:03.819Z,55.25
2022-11-25T19:46:52.684Z,48.60
2022-11-25T19:49:27.412Z,41.72
2022-11-25T19:52:00.174Z,34.55
2022-11-25T19:54:32.290Z,35.50
2022-11-25T19:57:06.582Z,32.10
2022-11-25T19:59:38.741Z,30.60
2022-11-25T20:02:16.580Z,28.40
2022-11-25T20:04:49.366Z,24.00
2022-11-25T20:07:23.878Z,21.35
2022-11-25T20:09:57.041Z,21.70
2022-11-25T20:12:32.341Z,31.45
2022-11-25T20:15:03.604Z,35.90
2022-11-25T20:17:36.996Z,34.13
2022-11-25T20:20:12.812Z,49.63
2022-11-25T20:22:48.111Z,39.50
2022-11-25T20:25:19.798Z,36.60
2022-11-25T20:27:53.860Z,32.42
2022-11-25T20:30:27.340Z,29.27
2022-11-25T20:32:59.460Z,30.17
2022-11-25T20:35:32.140Z,30.73
2022-11-25T20:38:04.002Z,33.10
2022-11-25T20:40:41.914Z,30.08
2022-11-25T20:43:29.412Z,27.85
2022-11-25T20:46:02.052Z,30.25
2022-11-25T20:48:35.238Z,27.40
2022-11-25T20:51:10.134Z,24.30
2022-11-25T20:53:42.855Z,19.65
2022-11-25T20:56:16.844Z,21.88
2022-11-25T20:58:51.315Z,23.67
2022-11-25T21:01:22.742Z,22.83
2022-11-25T21:03:54.185Z,28.88
2022-11-25T21:06:28.339Z,21.85
2022-11-25T21:09:02.562Z,21.98
2022-11-25T21:11:35.836Z,21.67
2022-11-25T21:14:15.178Z,20.88
2022-11-25T21:16:46.906Z,19.15
2022-11-25T21:19:18.054Z,20.25
2022-11-25T21:21:52.082Z,20.17
2022-11-25T21:24:34.653Z,26.35
2022-11-25T21:27:13.981Z,27.90
2022-11-25T21:29:49.444Z,33.55
2022-11-25T21:32:24.296Z,31.60
2022-11-25T21:34:55.867Z,32.95
2022-11-25T21:37:32.824Z,34.72
2022-11-25T21:40:04.341Z,35.33
2022-11-25T21:42:36.268Z,31.95
2022-11-25T21:45:16.431Z,30.13
2022-11-25T21:47:47.943Z,29.75
2022-11-25T21:53:07.773Z,29.77
2022-11-25T21:55:39.435Z,26.15
2022-11-25T21:58:18.665Z,30.23
2022-11-25T22:00:54.781Z,35.22
2022-11-25T22:03:26.805Z,33.60
2022-11-25T22:05:58.609Z,31.35
2022-11-25T22:08:30.712Z,30.25
2022-11-25T22:11:01.787Z,29.30
2022-11-25T22:13:40.206Z,35.47
2022-11-25T22:16:18.613Z,46.53
2022-11-25T22:18:49.976Z,63.42
2022-11-25T22:21:21.773Z,57.15
2022-11-25T22:23:54.255Z,44.00
2022-11-25T22:26:31.773Z,44.90
2022-11-25T22:29:03.741Z,49.42
2022-11-25T22:31:37.718Z,46.08
2022-11-25T22:34:09.149Z,46.72
2022-11-25T22:36:42.244Z,40.25
2022-11-25T22:39:18.936Z,39.72
2022-11-25T22:41:51.980Z,36.40
2022-11-25T22:44:26.799Z,33.63
2022-11-25T22:47:00.594Z,28.40
2022-11-25T22:49:37.675Z,27.55
2022-11-25T22:52:09.398Z,28.48
2022-11-25T22:54:40.978Z,26.05
2022-11-25T22:57:12.788Z,26.25
2022-11-25T22:59:44.113Z,28.67
2022-11-25T23:02:22.891Z,28.10
2022-11-25T23:04:57.034Z,28.80
2022-11-25T23:07:28.936Z,28.83
2022-11-25T23:10:00.197Z,27.70
2022-11-25T23:12:31.008Z,28.52
2022-11-25T23:15:02.261Z,27.63
2022-11-25T23:17:35.646Z,28.23
2022-11-25T23:20:06.776Z,25.83
2022-11-25T23:22:37.962Z,22.58
2022-11-25T23:25:16.488Z,25.35
2022-11-25T23:27:47.261Z,22.77
2022-11-25T23:30:23.973Z,21.98
2022-11-25T23:32:57.985Z,28.02
2022-11-25T23:35:35.027Z,25.58
2022-11-25T23:38:08.595Z,22.80
2022-11-25T23:40:39.761Z,22.85
2022-11-25T23:43:15.741Z,22.70
2022-11-25T23:45:51.163Z,24.60
2022-11-25T23:48:27.889Z,23.13
2022-11-25T23:51:00.104Z,23.17
2022-11-25T23:53:34.040Z,21.90
2022-11-25T23:56:04.850Z,21.67
2022-11-25T23:58:35.773Z,23.05
